createdAt,value
2023-03-08T00:02:21.302Z,98710.97
2023-03-08T00:04:47.523Z,98703.09
2023-03-08T00:07:13.756Z,98707.03
2023-03-08T00:09:39.969Z,98700.31
2023-03-08T00:12:06.282Z,98700.72
2023-03-08T00:14:32.486Z,98692.47
2023-03-08T00:16:58.702Z,98690.09
2023-03-08T00:19:24.911Z,98683.59
2023-03-08T00:21:51.128Z,98685.75
2023-03-08T00:24:17.329Z,98685.31
2023-03-08T00:26:43.658Z,98677.28
2023-03-08T00:29:09.919Z,98668.25
2023-03-08T00:31:36.210Z,98675.34
2023-03-08T00:34:02.430Z,98660.41
2023-03-08T00:36:28.639Z,98660.78
2023-03-08T00:38:55.686Z,98652.34
2023-03-08T00:41:21.893Z,98645.84
2023-03-08T00:43:48.190Z,98641.69
2023-03-08T00:46:14.428Z,98634.44
2023-03-08T00:48:40.795Z,98631.28
2023-03-08T00:51:07.015Z,98624.19
2023-03-08T00:53:33.266Z,98615.75
2023-03-08T00:55:59.471Z,98613.19
2023-03-08T00:58:26.039Z,98604.34
2023-03-08T01:00:52.299Z,98594.31
2023-03-08T01:03:18.574Z,98599.03
2023-03-08T01:05:45.995Z,98596.09
2023-03-08T01:08:12.270Z,98595.88
2023-03-08T01:10:38.467Z,98584.47
2023-03-08T01:13:05.083Z,98570.09
2023-03-08T01:15:31.295Z,98566.19
2023-03-08T01:17:57.521Z,98563.41
2023-03-08T01:20:23.741Z,98552.22
2023-03-08T01:22:49.961Z,98545.16
2023-03-08T01:25:16.175Z,98538.25
2023-03-08T01:27:42.394Z,98532.16
2023-03-08T01:30:08.853Z,98523.09
2023-03-08T01:32:35.102Z,98513.84
2023-03-08T01:35:01.323Z,98503.91
2023-03-08T01:37:27.543Z,98498.84
2023-03-08T01:39:53.737Z,98497.69
2023-03-08T01:42:19.946Z,98492.56
2023-03-08T01:44:49.917Z,98476.59
2023-03-08T01:47:19.883Z,98464.81
2023-03-08T01:49:46.087Z,98455.00
2023-03-08T01:52:12.879Z,98445.22
2023-03-08T01:54:46.749Z,98435.63
2023-03-08T01:57:18.936Z,98421.22
2023-03-08T01:59:45.152Z,98411.78
2023-03-08T02:02:11.374Z,98401.91
2023-03-08T02:04:37.572Z,98383.44
2023-03-08T02:07:03.795Z,98373.94
2023-03-08T02:09:30.036Z,98361.94
2023-03-08T02:11:57.269Z,98359.44
2023-03-08T02:14:23.467Z,98351.13
2023-03-08T02:16:49.674Z,98337.22
2023-03-08T02:19:17.426Z,98335.78
2023-03-08T02:21:43.667Z,98320.88
2023-03-08T02:24:20.054Z,98314.94
2023-03-08T02:26:46.282Z,98304.06
2023-03-08T02:29:12.502Z,98293.75
2023-03-08T02:31:38.715Z,98291.19
2023-03-08T02:34:04.932Z,98274.66
2023-03-08T02:36:31.167Z,98269.88
2023-03-08T02:38:57.543Z,98261.78
2023-03-08T02:41:23.741Z,98252.34
2023-03-08T02:43:49.966Z,98255.09
2023-03-08T02:46:16.168Z,98240.88
2023-03-08T02:48:42.398Z,98242.03
2023-03-08T02:51:08.837Z,98238.16
2023-03-08T02:53:35.041Z,98227.25
2023-03-08T02:56:01.252Z,98222.97
2023-03-08T02:58:27.468Z,98221.84
2023-03-08T03:00:53.694Z,98213.41
2023-03-08T03:03:19.915Z,98199.06
2023-03-08T03:05:46.115Z,98175.63
2023-03-08T03:08:12.322Z,98155.66
2023-03-08T03:10:41.539Z,98150.19
2023-03-08T03:13:07.753Z,98147.06
2023-03-08T03:15:34.017Z,98138.97
2023-03-08T03:18:00.238Z,98131.09
2023-03-08T03:20:26.432Z,98124.44
2023-03-08T03:22:52.658Z,98111.44
2023-03-08T03:25:18.870Z,98118.19
2023-03-08T03:27:45.080Z,98105.50
2023-03-08T03:30:11.518Z,98105.28
2023-03-08T03:32:37.771Z,98088.72
2023-03-08T03:35:04.049Z,98085.28
2023-03-08T03:37:30.256Z,98073.00
2023-03-08T03:39:56.615Z,98079.94
2023-03-08T03:42:22.817Z,98072.72
2023-03-08T03:44:49.040Z,98059.97
2023-03-08T03:47:15.238Z,98055.50
2023-03-08T03:49:41.452Z,98043.28
2023-03-08T03:52:07.677Z,98032.53
2023-03-08T03:54:33.893Z,98013.19
2023-03-08T03:57:00.111Z,97986.78
2023-03-08T03:59:26.918Z,97984.22
2023-03-08T04:01:53.238Z,97967.91
2023-03-08T04:04:19.537Z,97950.13
2023-03-08T04:06:45.739Z,97925.69
2023-03-08T04:09:15.834Z,97905.63
2023-03-08T04:11:42.183Z,97893.84
2023-03-08T04:14:08.442Z,97878.06
2023-03-08T04:16:35.248Z,97853.50
2023-03-08T04:19:02.272Z,97829.91
2023-03-08T04:21:28.542Z,97805.03
2023-03-08T04:23:54.771Z,97785.13
2023-03-08T04:26:20.984Z,97770.88
2023-03-08T04:28:47.191Z,97752.31
2023-03-08T04:31:14.178Z,97726.28
2023-03-08T04:33:40.429Z,97712.94
2023-03-08T04:36:06.820Z,97700.25
2023-03-08T04:38:33.079Z,97690.25
2023-03-08T04:40:59.282Z,97666.00
2023-03-08T04:43:25.527Z,97651.66
2023-03-08T04:45:51.736Z,97630.75
2023-03-08T04:48:17.958Z,97610.94
2023-03-08T04:50:44.161Z,97592.78
2023-03-08T04:53:10.385Z,97583.44
2023-03-08T04:55:36.714Z,97569.41
2023-03-08T04:58:02.916Z,97552.81
2023-03-08T05:00:29.121Z,97533.50
2023-03-08T05:02:55.331Z,97525.38
2023-03-08T05:05:21.536Z,97520.25
2023-03-08T05:07:47.750Z,97504.19
2023-03-08T05:10:13.963Z,97506.22
2023-03-08T05:12:40.161Z,97497.00
2023-03-08T05:15:06.612Z,97487.28
2023-03-08T05:17:32.815Z,97484.97
2023-03-08T05:19:59.023Z,97470.06
2023-03-08T05:22:25.235Z,97460.84
2023-03-08T05:24:51.444Z,97458.06
2023-03-08T05:27:17.664Z,97449.63
2023-03-08T05:29:43.883Z,97444.81
2023-03-08T05:32:13.194Z,97436.41
2023-03-08T05:34:39.431Z,97438.25
2023-03-08T05:37:05.649Z,97430.13
2023-03-08T05:39:31.920Z,97420.94
2023-03-08T05:41:58.135Z,97416.09
2023-03-08T05:44:24.352Z,97419.72
2023-03-08T05:46:50.860Z,97422.84
2023-03-08T05:49:17.084Z,97434.63
2023-03-08T05:51:43.275Z,97425.16
2023-03-08T05:54:09.492Z,97430.56
2023-03-08T05:56:35.686Z,97432.09
2023-03-08T05:59:01.911Z,97434.41
2023-03-08T06:01:28.172Z,97445.66
2023-03-08T06:03:55.538Z,97451.56
2023-03-08T06:06:22.092Z,97451.56
2023-03-08T06:08:48.372Z,97453.88
2023-03-08T06:11:14.632Z,97452.56
2023-03-08T06:13:40.855Z,97454.88
2023-03-08T06:16:07.077Z,97461.75
2023-03-08T06:18:33.461Z,97479.44
2023-03-08T06:21:19.900Z,97499.94
2023-03-08T06:23:46.127Z,97507.38
2023-03-08T06:26:12.504Z,97517.84
2023-03-08T06:28:38.974Z,97528.34
2023-03-08T06:31:05.218Z,97542.72
2023-03-08T06:33:32.079Z,97536.19
2023-03-08T06:36:02.170Z,97543.38
2023-03-08T06:38:29.883Z,97543.69
2023-03-08T06:40:56.797Z,97544.16
2023-03-08T06:43:23.086Z,97545.25
2023-03-08T06:45:49.312Z,97549.63
2023-03-08T06:48:15.566Z,97563.50
2023-03-08T06:50:41.894Z,97575.97
2023-03-08T06:53:08.166Z,97587.28
2023-03-08T06:55:35.063Z,97621.25
2023-03-08T06:58:01.264Z,97628.56
2023-03-08T07:00:27.511Z,97663.91
2023-03-08T07:02:53.710Z,97685.78
2023-03-08T07:05:19.931Z,97712.34
2023-03-08T07:07:46.139Z,97723.59
2023-03-08T07:10:12.411Z,97732.06
2023-03-08T07:12:38.617Z,97764.56
2023-03-08T07:15:05.043Z,97792.59
2023-03-08T07:17:31.247Z,97814.19
2023-03-08T07:19:57.457Z,97831.88
2023-03-08T07:22:23.667Z,97861.41
2023-03-08T07:24:49.885Z,97872.25
2023-03-08T07:27:16.077Z,97893.22
2023-03-08T07:29:42.279Z,97906.19
2023-03-08T07:32:08.540Z,97919.78
2023-03-08T07:34:34.846Z,97946.72
2023-03-08T07:37:01.100Z,97958.16
2023-03-08T07:39:27.312Z,97981.00
2023-03-08T07:41:53.518Z,98003.06
2023-03-08T07:44:19.743Z,98023.50
2023-03-08T07:46:46.097Z,98035.44
2023-03-08T07:49:12.314Z,98058.16
2023-03-08T07:51:38.506Z,98068.69
2023-03-08T07:54:04.771Z,98094.41
2023-03-08T07:56:30.974Z,98108.19
2023-03-08T07:58:57.205Z,98124.91
2023-03-08T08:01:23.418Z,98141.06
2023-03-08T08:03:50.032Z,98159.59
2023-03-08T08:06:16.457Z,98165.59
2023-03-08T08:08:42.663Z,98179.72
2023-03-08T08:11:15.282Z,98183.38
2023-03-08T08:13:41.524Z,98189.75
2023-03-08T08:16:07.841Z,98206.63
2023-03-08T08:18:34.407Z,98207.88
2023-03-08T08:21:01.350Z,98215.31
2023-03-08T08:23:27.815Z,98227.53
2023-03-08T08:25:54.067Z,98234.13
2023-03-08T08:28:20.292Z,98250.66
2023-03-08T08:30:54.672Z,98249.88
2023-03-08T08:33:20.882Z,98250.75
2023-03-08T08:35:47.147Z,98273.72
2023-03-08T08:38:13.385Z,98273.84
2023-03-08T08:40:39.596Z,98296.25
2023-03-08T08:43:05.807Z,98302.56
2023-03-08T08:45:32.031Z,98311.91
2023-03-08T08:47:58.247Z,98327.44
2023-03-08T08:50:24.763Z,98323.16
2023-03-08T08:52:51.113Z,98337.75
2023-03-08T08:55:17.344Z,98332.91
2023-03-08T09:00:14.127Z,98325.53
2023-03-08T09:03:20.393Z,98325.09
2023-03-08T09:05:46.996Z,98325.91
2023-03-08T09:08:13.277Z,98327.72
2023-03-08T09:10:39.967Z,98337.00
2023-03-08T09:13:06.313Z,98338.28
2023-03-08T09:15:32.567Z,98341.09
2023-03-08T09:17:58.846Z,98359.84
2023-03-08T09:20:25.109Z,98376.50
2023-03-08T09:22:51.399Z,98393.50
2023-03-08T09:25:17.662Z,98400.53
2023-03-08T09:27:43.856Z,98402.13
2023-03-08T09:30:11.076Z,98413.31
2023-03-08T09:32:37.292Z,98398.44
2023-03-08T09:35:03.537Z,98411.25
2023-03-08T09:37:29.810Z,98416.28
2023-03-08T09:39:56.045Z,98419.25
2023-03-08T09:42:23.157Z,98434.06
2023-03-08T09:44:58.573Z,98442.06
2023-03-08T09:47:28.756Z,98431.00
2023-03-08T09:49:55.874Z,98420.91
2023-03-08T09:52:27.688Z,98412.88
2023-03-08T09:54:53.936Z,98406.72
2023-03-08T09:57:22.371Z,98395.34
2023-03-08T09:59:51.434Z,98398.34
2023-03-08T10:02:49.829Z,98405.50
2023-03-08T10:05:17.257Z,98416.91
2023-03-08T10:07:45.673Z,98405.81
2023-03-08T10:10:23.360Z,98414.19
2023-03-08T10:12:57.362Z,98399.81
2023-03-08T10:15:23.740Z,98398.56
2023-03-08T10:17:52.119Z,98393.44
2023-03-08T10:20:36.915Z,98392.97
2023-03-08T10:23:16.468Z,98406.06
2023-03-08T10:25:42.837Z,98383.94
2023-03-08T10:28:13.581Z,98390.03
2023-03-08T10:30:45.117Z,98385.72
2023-03-08T10:33:12.068Z,98405.19
2023-03-08T10:35:53.727Z,98409.16
2023-03-08T10:38:19.985Z,98433.53
2023-03-08T10:40:46.206Z,98436.59
2023-03-08T10:43:38.756Z,98442.00
2023-03-08T10:46:05.893Z,98428.34
2023-03-08T10:48:32.125Z,98410.03
2023-03-08T10:50:59.253Z,98423.59
2023-03-08T10:53:25.479Z,98387.13
2023-03-08T10:55:51.802Z,98339.31
2023-03-08T10:58:28.352Z,98301.28
2023-03-08T11:00:55.114Z,98227.69
2023-03-08T11:03:21.976Z,98236.59
2023-03-08T11:05:55.531Z,98209.66
2023-03-08T11:08:23.356Z,98173.13
2023-03-08T11:10:59.291Z,98145.34
2023-03-08T11:13:51.630Z,98119.09
2023-03-08T11:16:33.088Z,98080.41
2023-03-08T11:19:18.045Z,98042.63
2023-03-08T11:21:56.169Z,98044.31
2023-03-08T11:24:28.166Z,98087.41
2023-03-08T11:27:09.083Z,98125.56
2023-03-08T11:29:35.288Z,98183.72
2023-03-08T11:32:04.484Z,98218.97
2023-03-08T11:34:38.841Z,98237.47
2023-03-08T11:37:11.200Z,98258.06
2023-03-08T11:39:37.413Z,98261.91
2023-03-08T11:42:04.202Z,98271.28
2023-03-08T11:44:39.625Z,98286.59
2023-03-08T11:47:05.849Z,98310.34
2023-03-08T11:49:50.951Z,98346.13
2023-03-08T11:52:17.102Z,98372.69
2023-03-08T11:54:55.178Z,98400.22
2023-03-08T11:57:21.399Z,98422.06
2023-03-08T11:59:52.508Z,98407.94
2023-03-08T12:02:20.153Z,98412.03
2023-03-08T12:04:58.631Z,98411.44
2023-03-08T12:07:32.452Z,98353.81
2023-03-08T12:09:59.868Z,98316.25
2023-03-08T12:12:29.235Z,98293.75
2023-03-08T12:14:57.066Z,98222.41
2023-03-08T12:17:34.819Z,98201.31
2023-03-08T12:20:01.056Z,98183.69
2023-03-08T12:22:27.223Z,98070.22
2023-03-08T12:25:12.025Z,98040.72
2023-03-08T12:27:38.199Z,98023.88
2023-03-08T12:30:07.065Z,98007.69
2023-03-08T12:32:33.418Z,98008.53
2023-03-08T12:35:03.778Z,97977.38
2023-03-08T12:37:30.074Z,97921.47
2023-03-08T12:42:29.867Z,97865.34
2023-03-08T12:45:05.325Z,97814.84
2023-03-08T12:47:31.536Z,97806.84
2023-03-08T12:49:57.794Z,97832.84
2023-03-08T12:52:33.180Z,97779.28
2023-03-08T12:55:17.957Z,97834.91
2023-03-08T12:57:48.594Z,97838.50
2023-03-08T13:00:31.065Z,97814.59
2023-03-08T13:03:01.337Z,97816.91
2023-03-08T13:05:27.598Z,97774.41
2023-03-08T13:08:12.237Z,97829.53
2023-03-08T13:10:39.112Z,97819.50
2023-03-08T13:13:20.465Z,97855.56
2023-03-08T13:16:06.701Z,97844.72
2023-03-08T13:18:32.912Z,97847.31
2023-03-08T13:21:04.832Z,97890.56
2023-03-08T13:23:36.383Z,97925.78
2023-03-08T13:26:14.358Z,98022.69
2023-03-08T13:28:47.751Z,97933.59
2023-03-08T13:31:21.711Z,97881.59
2023-03-08T13:33:51.956Z,97891.66
2023-03-08T13:36:22.125Z,97885.44
2023-03-08T13:38:57.605Z,97875.38
2023-03-08T13:41:34.000Z,97851.94
2023-03-08T13:44:00.952Z,97818.75
2023-03-08T13:46:27.185Z,97818.47
2023-03-08T13:48:53.422Z,97860.44
2023-03-08T13:51:19.637Z,97832.38
2023-03-08T13:53:45.888Z,97787.81
2023-03-08T13:56:19.840Z,97799.66
2023-03-08T13:58:46.141Z,97794.50
2023-03-08T14:01:19.377Z,97820.75
2023-03-08T14:03:45.875Z,97825.38
2023-03-08T14:06:31.132Z,97852.44
2023-03-08T14:08:57.558Z,97867.91
2023-03-08T14:11:28.251Z,97969.66
2023-03-08T14:13:54.859Z,97991.81
2023-03-08T14:16:29.305Z,97986.81
2023-03-08T14:18:55.569Z,97955.13
2023-03-08T14:21:22.564Z,98008.78
2023-03-08T14:23:49.363Z,97946.44
2023-03-08T14:26:31.948Z,97909.59
2023-03-08T14:29:09.643Z,97888.72
2023-03-08T14:31:36.019Z,97850.34
2023-03-08T14:34:02.934Z,97888.19
2023-03-08T14:36:30.075Z,97875.06
2023-03-08T14:38:56.409Z,97865.53
2023-03-08T14:41:29.264Z,97913.25
2023-03-08T14:43:55.484Z,97866.63
2023-03-08T14:46:21.804Z,97831.59
2023-03-08T14:48:56.204Z,97852.13
2023-03-08T14:51:29.852Z,97930.94
2023-03-08T14:53:57.301Z,97974.97
2023-03-08T14:56:23.508Z,97922.41
2023-03-08T14:58:50.254Z,97980.34
2023-03-08T15:01:32.814Z,98003.50
2023-03-08T15:03:59.279Z,98107.44
2023-03-08T15:06:27.055Z,98212.41
2023-03-08T15:08:53.257Z,98327.00
2023-03-08T15:11:19.468Z,98404.56
2023-03-08T15:13:45.686Z,98431.69
2023-03-08T15:16:14.526Z,98468.09
2023-03-08T15:18:41.125Z,98532.00
2023-03-08T15:21:10.728Z,98536.91
2023-03-08T15:23:37.086Z,98563.28
2023-03-08T15:26:06.316Z,98614.47
2023-03-08T15:28:32.524Z,98638.84
2023-03-08T15:30:58.816Z,98664.88
2023-03-08T15:33:25.036Z,98684.78
2023-03-08T15:35:51.273Z,98704.03
2023-03-08T15:38:17.972Z,98714.53
2023-03-08T15:40:44.196Z,98725.84
2023-03-08T15:43:10.407Z,98745.06
2023-03-08T15:45:36.777Z,98763.28
2023-03-08T15:48:04.187Z,98772.09
2023-03-08T15:50:30.419Z,98775.00
2023-03-08T15:52:56.775Z,98743.94
2023-03-08T15:55:23.345Z,98750.09
2023-03-08T15:57:49.622Z,98759.72
2023-03-08T16:00:16.327Z,98754.56
2023-03-08T16:02:42.587Z,98740.56
2023-03-08T16:05:09.485Z,98735.34
2023-03-08T16:07:35.752Z,98733.09
2023-03-08T16:10:02.020Z,98725.16
2023-03-08T16:12:28.219Z,98709.41
2023-03-08T16:14:54.528Z,98691.72
2023-03-08T16:17:20.851Z,98712.88
2023-03-08T16:19:47.149Z,98717.88
2023-03-08T16:22:13.414Z,98726.06
2023-03-08T16:24:39.627Z,98718.56
2023-03-08T16:27:05.916Z,98721.03
2023-03-08T16:29:32.399Z,98732.97
2023-03-08T16:31:58.684Z,98742.63
2023-03-08T16:34:25.360Z,98761.34
2023-03-08T16:36:52.339Z,98783.69
2023-03-08T16:39:18.566Z,98791.06
2023-03-08T16:41:44.803Z,98799.19
2023-03-08T16:44:24.229Z,98811.69
2023-03-08T16:46:50.431Z,98819.84
2023-03-08T16:49:16.817Z,98818.28
2023-03-08T16:51:43.104Z,98831.78
2023-03-08T16:54:12.556Z,98832.34
2023-03-08T16:56:38.928Z,98820.28
2023-03-08T16:59:05.151Z,98808.00
2023-03-08T17:01:31.414Z,98791.88
2023-03-08T17:03:57.666Z,98793.53
2023-03-08T17:06:24.860Z,98788.50
2023-03-08T17:08:51.108Z,98789.09
2023-03-08T17:11:17.944Z,98801.78
2023-03-08T17:13:46.476Z,98822.81
2023-03-08T17:16:12.794Z,98821.66
2023-03-08T17:18:39.216Z,98809.78
2023-03-08T17:21:05.677Z,98805.41
2023-03-08T17:23:31.896Z,98792.81
2023-03-08T17:25:58.114Z,98789.75
2023-03-08T17:28:24.320Z,98804.78
2023-03-08T17:30:50.563Z,98809.59
2023-03-08T17:33:16.791Z,98815.00
2023-03-08T17:35:43.050Z,98816.00
2023-03-08T17:38:09.290Z,98821.91
2023-03-08T17:40:37.709Z,98813.66
2023-03-08T17:43:03.932Z,98802.66
2023-03-08T17:45:30.197Z,98807.44
2023-03-08T17:47:56.412Z,98799.88
2023-03-08T17:50:24.873Z,98793.94
2023-03-08T17:52:51.957Z,98783.06
2023-03-08T17:55:18.200Z,98766.88
2023-03-08T17:57:44.417Z,98751.22
2023-03-08T18:00:10.960Z,98746.59
2023-03-08T18:02:37.285Z,98740.56
2023-03-08T18:05:03.575Z,98736.22
2023-03-08T18:07:29.864Z,98732.81
2023-03-08T18:09:56.100Z,98738.41
2023-03-08T18:12:22.352Z,98746.53
2023-03-08T18:14:48.555Z,98746.25
2023-03-08T18:17:14.759Z,98762.69
2023-03-08T18:19:40.959Z,98762.03
2023-03-08T18:22:07.224Z,98773.88
2023-03-08T18:24:33.462Z,98771.47
2023-03-08T18:26:59.678Z,98762.41
2023-03-08T18:29:25.883Z,98748.00
2023-03-08T18:31:52.100Z,98738.41
2023-03-08T18:34:18.304Z,98729.59
2023-03-08T18:36:44.556Z,98726.03
2023-03-08T18:39:11.876Z,98726.94
2023-03-08T18:41:38.082Z,98737.94
2023-03-08T18:44:04.329Z,98742.34
2023-03-08T18:46:31.091Z,98724.88
2023-03-08T18:49:01.330Z,98706.88
2023-03-08T18:51:27.971Z,98696.91
2023-03-08T18:53:54.498Z,98705.09
2023-03-08T18:56:20.686Z,98691.78
2023-03-08T18:58:46.887Z,98650.72
2023-03-08T19:01:13.788Z,98657.66
2023-03-08T19:03:40.233Z,98671.66
2023-03-08T19:06:06.568Z,98683.34
2023-03-08T19:08:32.783Z,98713.22
2023-03-08T19:10:59.085Z,98708.09
2023-03-08T19:13:25.294Z,98684.66
2023-03-08T19:15:51.501Z,98684.47
2023-03-08T19:18:17.741Z,98691.56
2023-03-08T19:20:43.946Z,98699.03
2023-03-08T19:23:10.164Z,98708.50
2023-03-08T19:25:36.608Z,98717.22
2023-03-08T19:28:02.828Z,98708.31
2023-03-08T19:30:29.100Z,98696.69
2023-03-08T19:32:55.843Z,98670.53
2023-03-08T19:35:22.074Z,98663.19
2023-03-08T19:37:48.305Z,98670.31
2023-03-08T19:40:14.495Z,98676.63
2023-03-08T19:42:40.710Z,98671.91
2023-03-08T19:45:07.273Z,98674.91
2023-03-08T19:47:33.499Z,98666.97
2023-03-08T19:49:59.742Z,98680.47
2023-03-08T19:52:25.985Z,98696.50
2023-03-08T19:54:52.339Z,98698.72
2023-03-08T19:57:20.896Z,98684.56
2023-03-08T19:59:47.152Z,98685.06
2023-03-08T20:02:13.350Z,98682.72
2023-03-08T20:04:40.921Z,98662.63
2023-03-08T20:07:07.300Z,98656.00
2023-03-08T20:09:33.547Z,98653.44
2023-03-08T20:11:59.753Z,98655.16
2023-03-08T20:14:26.089Z,98646.56
2023-03-08T20:16:52.349Z,98639.91
2023-03-08T20:19:18.662Z,98638.78
2023-03-08T20:21:44.941Z,98654.63
2023-03-08T20:24:11.177Z,98623.69
2023-03-08T20:26:37.477Z,98630.94
2023-03-08T20:29:03.759Z,98631.81
2023-03-08T20:31:31.636Z,98637.13
2023-03-08T20:33:57.851Z,98627.16
2023-03-08T20:36:24.061Z,98634.41
2023-03-08T20:38:50.274Z,98647.22
2023-03-08T20:41:17.315Z,98645.28
2023-03-08T20:43:43.704Z,98643.16
2023-03-08T20:46:10.443Z,98626.28
2023-03-08T20:48:37.449Z,98606.97
2023-03-08T20:51:03.832Z,98608.69
2023-03-08T20:53:30.150Z,98615.75
2023-03-08T20:55:56.441Z,98599.63
2023-03-08T20:58:22.651Z,98590.97
2023-03-08T21:00:48.896Z,98594.75
2023-03-08T21:03:15.104Z,98591.66
2023-03-08T21:05:42.465Z,98580.50
2023-03-08T21:08:26.610Z,98577.88
2023-03-08T21:10:52.832Z,98573.34
2023-03-08T21:13:19.038Z,98570.19
2023-03-08T21:15:45.342Z,98554.44
2023-03-08T21:18:11.672Z,98549.25
2023-03-08T21:20:37.956Z,98530.19
2023-03-08T21:23:04.165Z,98513.06
2023-03-08T21:25:32.799Z,98499.66
2023-03-08T21:27:59.032Z,98492.22
2023-03-08T21:30:25.284Z,98491.63
2023-03-08T21:32:51.590Z,98478.38
2023-03-08T21:35:20.223Z,98478.03
2023-03-08T21:37:46.428Z,98471.53
2023-03-08T21:40:12.693Z,98449.66
2023-03-08T21:42:38.918Z,98445.88
2023-03-08T21:45:05.316Z,98437.28
2023-03-08T21:47:31.531Z,98427.63
2023-03-08T21:49:57.739Z,98426.13
2023-03-08T21:52:23.933Z,98411.84
2023-03-08T21:54:50.162Z,98411.19
2023-03-08T21:57:16.373Z,98410.97
2023-03-08T21:59:42.586Z,98410.19
2023-03-08T22:02:09.374Z,98403.69
2023-03-08T22:04:36.630Z,98395.72
2023-03-08T22:07:02.836Z,98382.72
2023-03-08T22:09:29.080Z,98383.94
2023-03-08T22:11:55.368Z,98383.50
2023-03-08T22:14:21.585Z,98376.81
2023-03-08T22:16:48.378Z,98371.69
2023-03-08T22:19:14.587Z,98357.03
2023-03-08T22:21:40.785Z,98360.59
2023-03-08T22:24:07.020Z,98354.91
2023-03-08T22:26:33.243Z,98348.72
2023-03-08T22:28:59.495Z,98347.97
2023-03-08T22:31:26.158Z,98333.44
2023-03-08T22:33:52.404Z,98322.78
2023-03-08T22:36:18.795Z,98317.75
2023-03-08T22:38:45.014Z,98304.69
2023-03-08T22:41:11.769Z,98294.66
2023-03-08T22:43:38.254Z,98285.44
2023-03-08T22:46:11.492Z,98289.13
2023-03-08T22:48:37.732Z,98275.03
2023-03-08T22:51:10.769Z,98278.47
2023-03-08T22:53:37.561Z,98272.38
2023-03-08T22:56:03.807Z,98258.88
2023-03-08T22:58:30.012Z,98261.28
2023-03-08T23:00:56.221Z,98254.81
2023-03-08T23:03:22.530Z,98246.38
2023-03-08T23:05:48.772Z,98225.53
2023-03-08T23:08:14.970Z,98213.75
2023-03-08T23:10:41.189Z,98204.06
2023-03-08T23:13:07.384Z,98200.53
2023-03-08T23:15:33.605Z,98189.09
2023-03-08T23:17:59.812Z,98180.28
2023-03-08T23:20:26.041Z,98176.72
2023-03-08T23:22:52.250Z,98158.50
2023-03-08T23:25:18.467Z,98152.81
2023-03-08T23:27:44.771Z,98145.94
2023-03-08T23:30:13.389Z,98131.38
2023-03-08T23:32:39.686Z,98119.81
2023-03-08T23:35:06.181Z,98111.34
2023-03-08T23:37:32.405Z,98106.47
2023-03-08T23:39:58.671Z,98092.34
2023-03-08T23:42:24.875Z,98081.91
2023-03-08T23:44:51.123Z,98082.00
2023-03-08T23:47:17.322Z,98070.88
2023-03-08T23:49:43.531Z,98061.88
2023-03-08T23:52:09.732Z,98048.28
2023-03-08T23:54:35.956Z,98044.06
2023-03-08T23:57:02.163Z,98033.97
2023-03-08T23:59:28.381Z,98027.31
